sensor_id;sensor_type;location;lat;lon;timestamp;pressure;altitude;pressure_sealevel;temperature;humidity
6853;BME280;3465;42.144;24.722;2023-06-14T00:02:11;147983.63;;;20.24;100.00
6853;BME280;3465;42.144;24.722;2023-06-14T00:04:36;147982.34;;;20.24;100.00
6853;BME280;3465;42.144;24.722;2023-06-14T00:07:04;147973.50;;;20.20;100.00
6853;BME280;3465;42.144;24.722;2023-06-14T00:09:29;147882.59;;;19.84;100.00
6853;BME280;3465;42.144;24.722;2023-06-14T00:11:55;147996.25;;;20.29;100.00
6853;BME280;3465;42.144;24.722;2023-06-14T00:14:20;148021.53;;;20.39;100.00
6853;BME280;3465;42.144;24.722;2023-06-14T00:16:46;147978.56;;;20.22;100.00
6853;BME280;3465;42.144;24.722;2023-06-14T00:19:11;148008.88;;;20.34;100.00
6853;BME280;3465;42.144;24.722;2023-06-14T00:21:37;148013.91;;;20.36;100.00
6853;BME280;3465;42.144;24.722;2023-06-14T00:24:03;148013.91;;;20.36;100.00
6853;BME280;3465;42.144;24.722;2023-06-14T00:26:29;147969.72;;;20.19;100.00
6853;BME280;3465;42.144;24.722;2023-06-14T00:28:55;148007.59;;;20.34;100.00
6853;BME280;3465;42.144;24.722;2023-06-14T00:31:22;147998.75;;;20.30;100.00
6853;BME280;3465;42.144;24.722;2023-06-14T00:33:48;147998.75;;;20.30;100.00
6853;BME280;3465;42.144;24.722;2023-06-14T00:36:13;148018.97;;;20.38;100.00
6853;BME280;3465;42.144;24.722;2023-06-14T00:38:39;147934.34;;;20.05;100.00
6853;BME280;3465;42.144;24.722;2023-06-14T00:41:04;147965.94;;;20.17;100.00
6853;BME280;3465;42.144;24.722;2023-06-14T00:43:30;147957.03;;;20.14;100.00
6853;BME280;3465;42.144;24.722;2023-06-14T00:45:55;147948.25;;;20.10;100.00
6853;BME280;3465;42.144;24.722;2023-06-14T00:48:21;147949.47;;;20.11;100.00
6853;BME280;3465;42.144;24.722;2023-06-14T00:50:49;147954.53;;;20.13;100.00
6853;BME280;3465;42.144;24.722;2023-06-14T00:53:16;147964.69;;;20.17;100.00
6853;BME280;3465;42.144;24.722;2023-06-14T00:55:43;147965.94;;;20.17;100.00
6853;BME280;3465;42.144;24.722;2023-06-14T00:58:09;147964.69;;;20.17;100.00
6853;BME280;3465;42.144;24.722;2023-06-14T01:00:35;147953.25;;;20.12;100.00
6853;BME280;3465;42.144;24.722;2023-06-14T01:03:01;147948.25;;;20.10;100.00
6853;BME280;3465;42.144;24.722;2023-06-14T01:05:28;147950.75;;;20.11;100.00
6853;BME280;3465;42.144;24.722;2023-06-14T01:08:24;147938.13;;;20.06;100.00
6853;BME280;3465;42.144;24.722;2023-06-14T01:13:36;147909.06;;;19.94;100.00
6853;BME280;3465;42.144;24.722;2023-06-14T01:16:03;147877.53;;;19.82;100.00
6853;BME280;3465;42.144;24.722;2023-06-14T01:18:29;147878.81;;;19.82;100.00
6853;BME280;3465;42.144;24.722;2023-06-14T01:20:55;147872.47;;;19.80;100.00
6853;BME280;3465;42.144;24.722;2023-06-14T01:23:22;147886.38;;;19.85;100.00
6853;BME280;3465;42.144;24.722;2023-06-14T01:25:49;147897.72;;;19.90;100.00
6853;BME280;3465;42.144;24.722;2023-06-14T01:28:19;147896.44;;;19.89;100.00
6853;BME280;3465;42.144;24.722;2023-06-14T01:30:52;147907.84;;;19.94;100.00
6853;BME280;3465;42.144;24.722;2023-06-14T01:33:22;147902.78;;;19.92;100.00
6853;BME280;3465;42.144;24.722;2023-06-14T01:35:53;147887.66;;;19.86;100.00
6853;BME280;3465;42.144;24.722;2023-06-14T01:38:24;147906.56;;;19.93;100.00
6853;BME280;3465;42.144;24.722;2023-06-14T01:40:50;147895.22;;;19.89;100.00
6853;BME280;3465;42.144;24.722;2023-06-14T01:43:18;147893.94;;;19.88;100.00
6853;BME280;3465;42.144;24.722;2023-06-14T01:45:45;147881.31;;;19.83;100.00
6853;BME280;3465;42.144;24.722;2023-06-14T01:48:12;147868.69;;;19.78;100.00
6853;BME280;3465;42.144;24.722;2023-06-14T01:50:38;147844.72;;;19.69;100.00
6853;BME280;3465;42.144;24.722;2023-06-14T01:53:08;147868.69;;;19.78;100.00
6853;BME280;3465;42.144;24.722;2023-06-14T01:55:34;147847.28;;;19.70;100.00
6853;BME280;3465;42.144;24.722;2023-06-14T01:58:05;147873.75;;;19.80;100.00
6853;BME280;3465;42.144;24.722;2023-06-14T02:00:31;147882.59;;;19.84;100.00
6853;BME280;3465;42.144;24.722;2023-06-14T02:02:56;147755.13;;;19.33;100.00
6853;BME280;3465;42.144;24.722;2023-06-14T02:05:22;147858.63;;;19.74;100.00
6853;BME280;3465;42.144;24.722;2023-06-14T02:07:47;147830.88;;;19.63;100.00
6853;BME280;3465;42.144;24.722;2023-06-14T02:10:13;147875.03;;;19.81;100.00
6853;BME280;3465;42.144;24.722;2023-06-14T02:12:39;147834.66;;;19.65;100.00
6853;BME280;3465;42.144;24.722;2023-06-14T02:15:05;147809.41;;;19.55;100.00
6853;BME280;3465;42.144;24.722;2023-06-14T02:17:32;147811.91;;;19.56;100.00
6853;BME280;3465;42.144;24.722;2023-06-14T02:19:58;147830.88;;;19.63;100.00
6853;BME280;3465;42.144;24.722;2023-06-14T02:22:23;147804.34;;;19.53;100.00
6853;BME280;3465;42.144;24.722;2023-06-14T02:24:48;147784.16;;;19.45;100.00
6853;BME280;3465;42.144;24.722;2023-06-14T02:27:14;147762.75;;;19.36;100.00
6853;BME280;3465;42.144;24.722;2023-06-14T02:29:39;147800.56;;;19.51;100.00
6853;BME280;3465;42.144;24.722;2023-06-14T02:32:05;147805.63;;;19.53;100.00
6853;BME280;3465;42.144;24.722;2023-06-14T02:34:33;147801.84;;;19.52;100.00
6853;BME280;3465;42.144;24.722;2023-06-14T02:36:59;147635.28;;;18.86;100.00
6853;BME280;3465;42.144;24.722;2023-06-14T02:39:24;147794.28;;;19.49;100.00
6853;BME280;3465;42.144;24.722;2023-06-14T02:41:50;147719.78;;;19.19;100.00
6853;BME280;3465;42.144;24.722;2023-06-14T02:44:17;147813.19;;;19.56;100.00
6853;BME280;3465;42.144;24.722;2023-06-14T02:46:43;147786.72;;;19.46;100.00
6853;BME280;3465;42.144;24.722;2023-06-14T02:49:09;147827.09;;;19.62;100.00
6853;BME280;3465;42.144;24.722;2023-06-14T02:51:35;147798.06;;;19.50;100.00
6853;BME280;3465;42.144;24.722;2023-06-14T02:54:00;147808.13;;;19.54;100.00
6853;BME280;3465;42.144;24.722;2023-06-14T02:56:26;147801.84;;;19.52;100.00
6853;BME280;3465;42.144;24.722;2023-06-14T02:58:53;147795.50;;;19.49;100.00
6853;BME280;3465;42.144;24.722;2023-06-14T03:01:18;147794.28;;;19.49;100.00
6853;BME280;3465;42.144;24.722;2023-06-14T03:03:46;147784.16;;;19.45;100.00
6853;BME280;3465;42.144;24.722;2023-06-14T03:06:11;147766.53;;;19.38;100.00
6853;BME280;3465;42.144;24.722;2023-06-14T03:08:38;147760.19;;;19.35;100.00
6853;BME280;3465;42.144;24.722;2023-06-14T03:11:04;147766.53;;;19.38;100.00
6853;BME280;3465;42.144;24.722;2023-06-14T03:13:34;147723.56;;;19.21;100.00
6853;BME280;3465;42.144;24.722;2023-06-14T03:15:59;147751.34;;;19.32;100.00
6853;BME280;3465;42.144;24.722;2023-06-14T03:18:28;147758.97;;;19.35;100.00
6853;BME280;3465;42.144;24.722;2023-06-14T03:20:54;147766.53;;;19.38;100.00
6853;BME280;3465;42.144;24.722;2023-06-14T03:23:22;147780.38;;;19.43;100.00
6853;BME280;3465;42.144;24.722;2023-06-14T03:25:48;147779.16;;;19.43;100.00
6853;BME280;3465;42.144;24.722;2023-06-14T03:28:13;147760.19;;;19.35;100.00
6853;BME280;3465;42.144;24.722;2023-06-14T03:30:38;147760.19;;;19.35;100.00
6853;BME280;3465;42.144;24.722;2023-06-14T03:33:04;147785.44;;;19.45;100.00
6853;BME280;3465;42.144;24.722;2023-06-14T03:35:30;147776.59;;;19.42;100.00
6853;BME280;3465;42.144;24.722;2023-06-14T03:37:55;147827.09;;;19.62;100.00
6853;BME280;3465;42.144;24.722;2023-06-14T03:40:21;147852.28;;;19.72;100.00
6853;BME280;3465;42.144;24.722;2023-06-14T03:42:47;147813.19;;;19.56;100.00
6853;BME280;3465;42.144;24.722;2023-06-14T03:45:12;147849.78;;;19.71;100.00
6853;BME280;3465;42.144;24.722;2023-06-14T03:47:38;147857.34;;;19.74;100.00
6853;BME280;3465;42.144;24.722;2023-06-14T03:50:04;147858.63;;;19.74;100.00
6853;BME280;3465;42.144;24.722;2023-06-14T03:52:29;147880.09;;;19.83;100.00
6853;BME280;3465;42.144;24.722;2023-06-14T03:54:55;147877.53;;;19.82;100.00
6853;BME280;3465;42.144;24.722;2023-06-14T03:57:21;147914.13;;;19.97;100.00
6853;BME280;3465;42.144;24.722;2023-06-14T03:59:47;147916.66;;;19.98;100.00
6853;BME280;3465;42.144;24.722;2023-06-14T04:02:12;147883.88;;;19.84;100.00
6853;BME280;3465;42.144;24.722;2023-06-14T04:04:41;147848.50;;;19.70;100.00
6853;BME280;3465;42.144;24.722;2023-06-14T04:07:10;147885.09;;;19.85;100.00
6853;BME280;3465;42.144;24.722;2023-06-14T04:09:37;147888.88;;;19.86;100.00
6853;BME280;3465;42.144;24.722;2023-06-14T04:12:03;147902.78;;;19.92;100.00
6853;BME280;3465;42.144;24.722;2023-06-14T04:14:28;147899.00;;;19.90;100.00
6853;BME280;3465;42.144;24.722;2023-06-14T04:16:53;147890.16;;;19.87;100.00
6853;BME280;3465;42.144;24.722;2023-06-14T04:19:19;147907.84;;;19.94;100.00
6853;BME280;3465;42.144;24.722;2023-06-14T04:21:45;147905.31;;;19.93;100.00
6853;BME280;3465;42.144;24.722;2023-06-14T04:24:10;147877.53;;;19.82;100.00
6853;BME280;3465;42.144;24.722;2023-06-14T04:26:42;147905.31;;;19.93;100.00
6853;BME280;3465;42.144;24.722;2023-06-14T04:29:10;147890.16;;;19.87;100.00
6853;BME280;3465;42.144;24.722;2023-06-14T04:31:43;147912.88;;;19.96;100.00
6853;BME280;3465;42.144;24.722;2023-06-14T04:34:09;147857.34;;;19.74;100.00
6853;BME280;3465;42.144;24.722;2023-06-14T04:36:41;147907.84;;;19.94;100.00
6853;BME280;3465;42.144;24.722;2023-06-14T04:39:17;147968.50;;;20.18;100.00
6853;BME280;3465;42.144;24.722;2023-06-14T04:41:45;147972.28;;;20.20;100.00
6853;BME280;3465;42.144;24.722;2023-06-14T04:44:12;148011.41;;;20.35;100.00
6853;BME280;3465;42.144;24.722;2023-06-14T04:46:38;148021.53;;;20.39;100.00
6853;BME280;3465;42.144;24.722;2023-06-14T04:49:15;148068.22;;;20.58;100.00
6853;BME280;3465;42.144;24.722;2023-06-14T04:51:44;148102.34;;;20.71;100.00
6853;BME280;3465;42.144;24.722;2023-06-14T04:54:10;148092.22;;;20.67;100.00
6853;BME280;3465;42.144;24.722;2023-06-14T04:56:38;148107.34;;;20.73;100.00
6853;BME280;3465;42.144;24.722;2023-06-14T04:59:04;148125.06;;;20.80;100.00
6853;BME280;3465;42.144;24.722;2023-06-14T05:01:32;148147.75;;;20.89;100.00
6853;BME280;3465;42.144;24.722;2023-06-14T05:03:58;148160.41;;;20.94;100.00
6853;BME280;3465;42.144;24.722;2023-06-14T05:06:24;148178.16;;;21.01;100.00
6853;BME280;3465;42.144;24.722;2023-06-14T05:08:51;148183.22;;;21.03;100.00
6853;BME280;3465;42.144;24.722;2023-06-14T05:11:16;148161.69;;;20.95;100.00
6853;BME280;3465;42.144;24.722;2023-06-14T05:13:42;148178.16;;;21.01;100.00
6853;BME280;3465;42.144;24.722;2023-06-14T05:16:08;148119.97;;;20.78;100.00
6853;BME280;3465;42.144;24.722;2023-06-14T05:18:34;148155.34;;;20.92;100.00
6853;BME280;3465;42.144;24.722;2023-06-14T05:21:01;148173.09;;;20.99;100.00
6853;BME280;3465;42.144;24.722;2023-06-14T05:23:26;148205.94;;;21.12;100.00
6853;BME280;3465;42.144;24.722;2023-06-14T05:25:52;148261.53;;;21.35;100.00
6853;BME280;3465;42.144;24.722;2023-06-14T05:28:18;148296.88;;;21.49;100.00
6853;BME280;3465;42.144;24.722;2023-06-14T05:30:43;148329.75;;;21.62;100.00
6853;BME280;3465;42.144;24.722;2023-06-14T05:33:09;148322.19;;;21.59;100.00
6853;BME280;3465;42.144;24.722;2023-06-14T05:35:34;148357.56;;;21.73;100.00
6853;BME280;3465;42.144;24.722;2023-06-14T05:38:00;148389.25;;;21.85;100.00
6853;BME280;3465;42.144;24.722;2023-06-14T05:40:25;148401.84;;;21.90;100.00
6853;BME280;3465;42.144;24.722;2023-06-14T05:42:50;148403.13;;;21.91;100.00
6853;BME280;3465;42.144;24.722;2023-06-14T05:45:16;148429.69;;;22.01;100.00
6853;BME280;3465;42.144;24.722;2023-06-14T05:47:42;148458.72;;;22.13;100.00
6853;BME280;3465;42.144;24.722;2023-06-14T05:50:07;148436.00;;;22.04;100.00
6853;BME280;3465;42.144;24.722;2023-06-14T05:52:34;148442.28;;;22.06;100.00
6853;BME280;3465;42.144;24.722;2023-06-14T05:55:00;148458.72;;;22.13;100.00
6853;BME280;3465;42.144;24.722;2023-06-14T05:57:26;148453.72;;;22.11;100.00
6853;BME280;3465;42.144;24.722;2023-06-14T05:59:52;148443.56;;;22.07;100.00
6853;BME280;3465;42.144;24.722;2023-06-14T06:02:17;148463.81;;;22.15;100.00
6853;BME280;3465;42.144;24.722;2023-06-14T06:04:43;148444.84;;;22.07;100.00
6853;BME280;3465;42.144;24.722;2023-06-14T06:07:08;148433.47;;;22.03;100.00
6853;BME280;3465;42.144;24.722;2023-06-14T06:09:33;148471.38;;;22.18;100.00
6853;BME280;3465;42.144;24.722;2023-06-14T06:11:59;148511.84;;;22.34;100.00
6853;BME280;3465;42.144;24.722;2023-06-14T06:14:24;148559.94;;;22.53;100.00
6853;BME280;3465;42.144;24.722;2023-06-14T06:16:50;148580.16;;;22.61;100.00
6853;BME280;3465;42.144;24.722;2023-06-14T06:19:18;148585.25;;;22.63;100.00
6853;BME280;3465;42.144;24.722;2023-06-14T06:21:43;148563.72;;;22.54;100.00
6853;BME280;3465;42.144;24.722;2023-06-14T06:24:08;148638.38;;;22.84;100.00
6853;BME280;3465;42.144;24.722;2023-06-14T06:26:34;148668.75;;;22.96;100.00
6853;BME280;3465;42.144;24.722;2023-06-14T06:28:59;148699.09;;;23.08;100.00
6853;BME280;3465;42.144;24.722;2023-06-14T06:31:25;148725.66;;;23.19;100.00
6853;BME280;3465;42.144;24.722;2023-06-14T06:33:52;148752.31;;;23.29;100.00
6853;BME280;3465;42.144;24.722;2023-06-14T06:36:19;148789.00;;;23.44;100.00
6853;BME280;3465;42.144;24.722;2023-06-14T06:38:45;148861.13;;;23.72;100.00
6853;BME280;3465;42.144;24.722;2023-06-14T06:41:10;148924.47;;;23.97;100.00
6853;BME280;3465;42.144;24.722;2023-06-14T06:43:36;148970.06;;;24.16;100.00
6853;BME280;3465;42.144;24.722;2023-06-14T06:46:01;148994.13;;;24.25;100.00
6853;BME280;3465;42.144;24.722;2023-06-14T06:48:27;149072.66;;;24.56;100.00
6853;BME280;3465;42.144;24.722;2023-06-14T06:50:53;149100.56;;;24.67;100.00
6853;BME280;3465;42.144;24.722;2023-06-14T06:53:19;149117.03;;;24.74;100.00
6853;BME280;3465;42.144;24.722;2023-06-14T06:55:44;149223.47;;;25.16;100.00
6853;BME280;3465;42.144;24.722;2023-06-14T06:58:10;149200.63;;;25.07;100.00
6853;BME280;3465;42.144;24.722;2023-06-14T07:00:35;149132.22;;;24.80;100.00
6853;BME280;3465;42.144;24.722;2023-06-14T07:03:01;149158.88;;;24.90;100.00
6853;BME280;3465;42.144;24.722;2023-06-14T07:05:26;149087.84;;;24.62;100.00
6853;BME280;3465;42.144;24.722;2023-06-14T07:07:52;149218.41;;;25.14;100.00
6853;BME280;3465;42.144;24.722;2023-06-14T07:10:17;149294.47;;;25.44;100.00
6853;BME280;3465;42.144;24.722;2023-06-14T07:12:43;149454.28;;;26.07;100.00
6853;BME280;3465;42.144;24.722;2023-06-14T07:15:09;149527.84;;;26.36;100.00
6853;BME280;3465;42.144;24.722;2023-06-14T07:17:35;149517.66;;;26.32;100.00
6853;BME280;3465;42.144;24.722;2023-06-14T07:20:04;149532.88;;;26.38;98.71
6853;BME280;3465;42.144;24.722;2023-06-14T07:22:34;149612.88;;;26.70;96.49
6853;BME280;3465;42.144;24.722;2023-06-14T07:24:59;149596.31;;;26.63;98.87
6853;BME280;3465;42.144;24.722;2023-06-14T07:27:25;149664.88;;;26.91;97.09
6853;BME280;3465;42.144;24.722;2023-06-14T07:29:50;149706.75;;;27.07;94.36
6853;BME280;3465;42.144;24.722;2023-06-14T07:32:15;149791.84;;;27.41;92.52
6853;BME280;3465;42.144;24.722;2023-06-14T07:34:41;149978.50;;;28.15;90.25
6853;BME280;3465;42.144;24.722;2023-06-14T07:37:06;149969.63;;;28.11;89.36
6853;BME280;3465;42.144;24.722;2023-06-14T07:39:32;150034.38;;;28.37;88.75
6853;BME280;3465;42.144;24.722;2023-06-14T07:41:57;149927.69;;;27.94;92.02
6853;BME280;3465;42.144;24.722;2023-06-14T07:44:23;149699.09;;;27.04;97.06
6853;BME280;3465;42.144;24.722;2023-06-14T07:46:48;149771.53;;;27.33;96.67
6853;BME280;3465;42.144;24.722;2023-06-14T07:49:14;149638.22;;;26.80;97.18
6853;BME280;3465;42.144;24.722;2023-06-14T07:51:40;149586.16;;;26.59;98.86
6853;BME280;3465;42.144;24.722;2023-06-14T07:54:06;149555.72;;;26.47;98.86
6853;BME280;3465;42.144;24.722;2023-06-14T07:56:32;149375.59;;;25.76;100.00
6853;BME280;3465;42.144;24.722;2023-06-14T07:58:58;149460.59;;;26.10;100.00
6853;BME280;3465;42.144;24.722;2023-06-14T08:01:23;149520.22;;;26.33;100.00
6853;BME280;3465;42.144;24.722;2023-06-14T08:03:50;149654.69;;;26.87;97.95
6853;BME280;3465;42.144;24.722;2023-06-14T08:06:16;149737.19;;;27.19;96.28
6853;BME280;3465;42.144;24.722;2023-06-14T08:08:41;149752.41;;;27.25;93.52
6853;BME280;3465;42.144;24.722;2023-06-14T08:11:06;149737.19;;;27.19;91.39
6853;BME280;3465;42.144;24.722;2023-06-14T08:13:32;149791.84;;;27.41;91.65
6853;BME280;3465;42.144;24.722;2023-06-14T08:15:57;149838.78;;;27.59;91.13
6853;BME280;3465;42.144;24.722;2023-06-14T08:18:23;149885.78;;;27.78;89.78
6853;BME280;3465;42.144;24.722;2023-06-14T08:20:49;149847.69;;;27.63;91.33
6853;BME280;3465;42.144;24.722;2023-06-14T08:23:15;149887.03;;;27.78;89.61
6853;BME280;3465;42.144;24.722;2023-06-14T08:25:44;149901.00;;;27.84;90.81
6853;BME280;3465;42.144;24.722;2023-06-14T08:28:10;149920.09;;;27.91;88.90
6853;BME280;3465;42.144;24.722;2023-06-14T08:30:35;150025.50;;;28.33;88.05
6853;BME280;3465;42.144;24.722;2023-06-14T08:33:00;150083.97;;;28.56;85.17
6853;BME280;3465;42.144;24.722;2023-06-14T08:35:26;150134.78;;;28.76;84.26
6853;BME280;3465;42.144;24.722;2023-06-14T08:37:51;150096.69;;;28.61;83.53
6853;BME280;3465;42.144;24.722;2023-06-14T08:40:21;150186.84;;;28.97;82.10
6853;BME280;3465;42.144;24.722;2023-06-14T08:42:51;150289.84;;;29.37;80.64
6853;BME280;3465;42.144;24.722;2023-06-14T08:45:16;150289.84;;;29.37;77.77
6853;BME280;3465;42.144;24.722;2023-06-14T08:47:42;150189.44;;;28.98;76.19
6853;BME280;3465;42.144;24.722;2023-06-14T08:50:08;150036.91;;;28.38;80.25
6853;BME280;3465;42.144;24.722;2023-06-14T08:52:38;150165.28;;;28.88;80.96
6853;BME280;3465;42.144;24.722;2023-06-14T08:55:15;150179.25;;;28.94;79.55
6853;BME280;3465;42.144;24.722;2023-06-14T08:57:43;150294.97;;;29.39;78.05
6853;BME280;3465;42.144;24.722;2023-06-14T09:00:11;150489.50;;;30.16;76.12
6853;BME280;3465;42.144;24.722;2023-06-14T09:02:39;150405.59;;;29.83;76.14
6853;BME280;3465;42.144;24.722;2023-06-14T09:05:11;150498.41;;;30.20;73.93
6853;BME280;3465;42.144;24.722;2023-06-14T09:07:42;150512.44;;;30.25;73.02
6853;BME280;3465;42.144;24.722;2023-06-14T09:10:12;150139.88;;;28.78;77.26
6853;BME280;3465;42.144;24.722;2023-06-14T09:12:38;149899.72;;;27.83;80.61
6853;BME280;3465;42.144;24.722;2023-06-14T09:15:05;149743.56;;;27.22;83.93
6853;BME280;3465;42.144;24.722;2023-06-14T09:17:38;149620.47;;;26.73;85.19
6853;BME280;3465;42.144;24.722;2023-06-14T09:20:08;149583.63;;;26.58;86.74
6853;BME280;3465;42.144;24.722;2023-06-14T09:22:43;149466.97;;;26.12;89.04
6853;BME280;3465;42.144;24.722;2023-06-14T09:25:09;149548.13;;;26.44;89.61
6853;BME280;3465;42.144;24.722;2023-06-14T09:27:35;149475.81;;;26.16;88.86
6853;BME280;3465;42.144;24.722;2023-06-14T09:30:02;149499.94;;;26.25;90.77
6853;BME280;3465;42.144;24.722;2023-06-14T09:32:28;149535.44;;;26.39;90.39
6853;BME280;3465;42.144;24.722;2023-06-14T09:34:54;149551.94;;;26.46;88.80
6853;BME280;3465;42.144;24.722;2023-06-14T09:37:27;149697.88;;;27.04;87.90
6853;BME280;3465;42.144;24.722;2023-06-14T09:39:53;149786.75;;;27.39;86.45
6853;BME280;3465;42.144;24.722;2023-06-14T09:42:19;149752.41;;;27.25;87.11
6853;BME280;3465;42.144;24.722;2023-06-14T09:44:48;149771.53;;;27.33;86.14
6853;BME280;3465;42.144;24.722;2023-06-14T09:47:17;149798.16;;;27.43;84.00
6853;BME280;3465;42.144;24.722;2023-06-14T09:49:43;149805.78;;;27.46;83.94
6853;BME280;3465;42.144;24.722;2023-06-14T09:52:15;149735.91;;;27.19;83.35
6853;BME280;3465;42.144;24.722;2023-06-14T09:54:42;149695.31;;;27.03;85.04
6853;BME280;3465;42.144;24.722;2023-06-14T09:57:10;149691.50;;;27.01;86.24
6853;BME280;3465;42.144;24.722;2023-06-14T09:59:43;149636.97;;;26.80;85.03
6853;BME280;3465;42.144;24.722;2023-06-14T10:02:31;149671.19;;;26.93;86.05
6853;BME280;3465;42.144;24.722;2023-06-14T10:05:07;149461.88;;;26.10;86.84
6853;BME280;3465;42.144;24.722;2023-06-14T10:07:53;149491.06;;;26.22;87.64
6853;BME280;3465;42.144;24.722;2023-06-14T10:10:21;149565.84;;;26.51;88.61
6853;BME280;3465;42.144;24.722;2023-06-14T10:12:46;149532.88;;;26.38;90.81
6853;BME280;3465;42.144;24.722;2023-06-14T10:15:19;149847.69;;;27.63;87.98
6853;BME280;3465;42.144;24.722;2023-06-14T10:17:51;150158.91;;;28.86;83.41
6853;BME280;3465;42.144;24.722;2023-06-14T10:20:33;150294.97;;;29.39;77.19
6853;BME280;3465;42.144;24.722;2023-06-14T10:23:22;150414.53;;;29.87;77.24
6853;BME280;3465;42.144;24.722;2023-06-14T10:25:56;150409.41;;;29.85;77.67
6853;BME280;3465;42.144;24.722;2023-06-14T10:28:23;150494.63;;;30.18;76.32
6853;BME280;3465;42.144;24.722;2023-06-14T10:31:05;150563.34;;;30.45;72.37
6853;BME280;3465;42.144;24.722;2023-06-14T10:33:33;150750.41;;;31.19;69.21
6853;BME280;3465;42.144;24.722;2023-06-14T10:41:34;151122.34;;;32.66;62.93
6853;BME280;3465;42.144;24.722;2023-06-14T10:46:46;151186.06;;;32.91;63.44
6853;BME280;3465;42.144;24.722;2023-06-14T10:49:11;151006.38;;;32.20;63.51
6853;BME280;3465;42.144;24.722;2023-06-14T10:51:42;150933.81;;;31.91;66.54
6853;BME280;3465;42.144;24.722;2023-06-14T10:54:15;151172.03;;;32.85;65.54
6853;BME280;3465;42.144;24.722;2023-06-14T10:56:51;151140.16;;;32.73;65.13
6853;BME280;3465;42.144;24.722;2023-06-14T10:59:17;151056.09;;;32.40;65.49
6853;BME280;3465;42.144;24.722;2023-06-14T11:02:27;150640.94;;;30.76;67.94
6853;BME280;3465;42.144;24.722;2023-06-14T11:05:04;150709.69;;;31.03;68.35
6853;BME280;3465;42.144;24.722;2023-06-14T11:10:39;151168.22;;;32.84;63.74
6853;BME280;3465;42.144;24.722;2023-06-14T11:13:07;151186.06;;;32.91;61.72
6853;BME280;3465;42.144;24.722;2023-06-14T11:15:35;151045.88;;;32.36;63.58
6853;BME280;3465;42.144;24.722;2023-06-14T11:18:07;150819.16;;;31.46;63.43
6853;BME280;3465;42.144;24.722;2023-06-14T11:20:35;150978.38;;;32.09;61.28
6853;BME280;3465;42.144;24.722;2023-06-14T11:23:01;150814.06;;;31.44;59.40
6853;BME280;3465;42.144;24.722;2023-06-14T11:25:27;150825.56;;;31.49;59.71
6853;BME280;3465;42.144;24.722;2023-06-14T11:27:56;150859.91;;;31.62;62.78
6853;BME280;3465;42.144;24.722;2023-06-14T11:30:22;151086.69;;;32.52;62.58
6853;BME280;3465;42.144;24.722;2023-06-14T11:32:48;151000.03;;;32.18;62.57
6853;BME280;3465;42.144;24.722;2023-06-14T11:35:15;150882.84;;;31.71;62.44
6853;BME280;3465;42.144;24.722;2023-06-14T11:37:41;150922.34;;;31.87;62.51
6853;BME280;3465;42.144;24.722;2023-06-14T11:40:11;150675.31;;;30.90;64.48
6853;BME280;3465;42.144;24.722;2023-06-14T11:42:38;150450.09;;;30.01;67.21
6853;BME280;3465;42.144;24.722;2023-06-14T11:45:06;150474.25;;;30.10;69.65
6853;BME280;3465;42.144;24.722;2023-06-14T11:47:32;150400.50;;;29.81;71.04
6853;BME280;3465;42.144;24.722;2023-06-14T11:50:02;150267.00;;;29.28;71.29
6853;BME280;3465;42.144;24.722;2023-06-14T11:52:28;150132.25;;;28.75;73.80
6853;BME280;3465;42.144;24.722;2023-06-14T11:54:53;150124.63;;;28.72;74.35
6853;BME280;3465;42.144;24.722;2023-06-14T11:57:19;150138.56;;;28.78;72.78
6853;BME280;3465;42.144;24.722;2023-06-14T11:59:45;150076.38;;;28.53;74.14
6853;BME280;3465;42.144;24.722;2023-06-14T12:02:18;150125.88;;;28.73;74.24
6853;BME280;3465;42.144;24.722;2023-06-14T12:04:47;150269.53;;;29.29;71.19
6853;BME280;3465;42.144;24.722;2023-06-14T12:07:14;150361.13;;;29.66;70.79
6853;BME280;3465;42.144;24.722;2023-06-14T12:09:42;150537.88;;;30.35;69.44
6853;BME280;3465;42.144;24.722;2023-06-14T12:12:28;150405.59;;;29.83;68.83
6853;BME280;3465;42.144;24.722;2023-06-14T12:14:56;150341.97;;;29.58;69.78
6853;BME280;3465;42.144;24.722;2023-06-14T12:17:22;150191.94;;;28.99;70.11
6853;BME280;3465;42.144;24.722;2023-06-14T12:19:49;150198.31;;;29.01;70.84
6853;BME280;3465;42.144;24.722;2023-06-14T12:22:16;150363.63;;;29.67;68.81
6853;BME280;3465;42.144;24.722;2023-06-14T12:24:45;150428.47;;;29.92;68.06
6853;BME280;3465;42.144;24.722;2023-06-14T12:27:12;150537.88;;;30.35;66.07
6853;BME280;3465;42.144;24.722;2023-06-14T12:29:43;150438.66;;;29.96;67.86
6853;BME280;3465;42.144;24.722;2023-06-14T12:32:09;150446.28;;;29.99;68.42
6853;BME280;3465;42.144;24.722;2023-06-14T12:34:35;150373.84;;;29.71;67.38
6853;BME280;3465;42.144;24.722;2023-06-14T12:37:01;150228.84;;;29.13;70.28
6853;BME280;3465;42.144;24.722;2023-06-14T12:39:26;150282.25;;;29.34;70.08
6853;BME280;3465;42.144;24.722;2023-06-14T12:41:51;150336.91;;;29.56;71.49
6853;BME280;3465;42.144;24.722;2023-06-14T12:44:17;150277.13;;;29.32;71.98
6853;BME280;3465;42.144;24.722;2023-06-14T12:46:42;150181.81;;;28.95;72.03
6853;BME280;3465;42.144;24.722;2023-06-14T12:49:09;150130.97;;;28.75;71.39
6853;BME280;3465;42.144;24.722;2023-06-14T12:51:36;150068.75;;;28.50;71.86
6853;BME280;3465;42.144;24.722;2023-06-14T12:54:01;150025.50;;;28.33;71.46
6853;BME280;3465;42.144;24.722;2023-06-14T12:56:27;150043.28;;;28.40;73.85
6853;BME280;3465;42.144;24.722;2023-06-14T12:58:52;149969.63;;;28.11;74.79
6853;BME280;3465;42.144;24.722;2023-06-14T13:01:18;149962.00;;;28.08;73.75
6853;BME280;3465;42.144;24.722;2023-06-14T13:03:43;149834.97;;;27.58;73.22
6853;BME280;3465;42.144;24.722;2023-06-14T13:06:09;149860.38;;;27.68;73.02
6853;BME280;3465;42.144;24.722;2023-06-14T13:08:34;149788.03;;;27.39;70.27
6853;BME280;3465;42.144;24.722;2023-06-14T13:11:00;149775.34;;;27.34;73.20